createdAt,value
2022-10-26T00:02:14.377Z,11.27
2022-10-26T00:04:59.600Z,10.20
2022-10-26T00:07:44.472Z,10.63
2022-10-26T00:10:31.607Z,10.00
2022-10-26T00:13:16.850Z,10.60
2022-10-26T00:16:02.150Z,10.60
2022-10-26T00:18:47.776Z,10.20
2022-10-26T00:21:32.958Z,9.97
2022-10-26T00:27:02.667Z,9.70
2022-10-26T00:29:47.579Z,9.33
2022-10-26T00:32:33.132Z,9.07
2022-10-26T00:35:23.262Z,8.67
2022-10-26T00:38:14.084Z,9.40
2022-10-26T00:40:59.506Z,9.07
2022-10-26T00:43:45.333Z,9.00
2022-10-26T00:46:37.458Z,9.17
2022-10-26T00:49:22.363Z,8.20
2022-10-26T00:52:09.037Z,8.30
2022-10-26T00:54:54.085Z,8.23
2022-10-26T00:57:39.796Z,8.00
2022-10-26T01:00:24.810Z,7.40
2022-10-26T01:03:11.217Z,8.03
2022-10-26T01:05:58.768Z,7.40
2022-10-26T01:08:44.001Z,7.10
2022-10-26T01:11:29.105Z,7.60
2022-10-26T01:14:17.655Z,7.27
2022-10-26T01:17:11.762Z,7.00
2022-10-26T01:19:59.798Z,7.33
2022-10-26T01:23:02.237Z,7.27
2022-10-26T01:25:53.297Z,7.00
2022-10-26T01:28:48.473Z,7.43
2022-10-26T01:31:42.816Z,6.90
2022-10-26T01:34:42.871Z,6.70
2022-10-26T01:37:35.671Z,7.00
2022-10-26T01:40:31.090Z,7.20
2022-10-26T01:43:17.137Z,7.50
2022-10-26T01:46:06.170Z,8.00
2022-10-26T01:48:56.993Z,7.60
2022-10-26T01:51:44.102Z,6.90
2022-10-26T01:54:29.414Z,7.43
2022-10-26T01:57:19.077Z,7.07
2022-10-26T02:00:08.499Z,6.00
2022-10-26T02:02:56.249Z,5.90
2022-10-26T02:06:06.674Z,6.00
2022-10-26T02:09:08.806Z,6.53
2022-10-26T02:11:55.493Z,6.50
2022-10-26T02:14:51.025Z,6.10
2022-10-26T02:17:53.709Z,6.03
2022-10-26T02:20:46.802Z,6.80
2022-10-26T02:23:35.071Z,6.73
2022-10-26T02:26:24.242Z,6.97
2022-10-26T02:29:13.897Z,6.40
2022-10-26T02:32:01.312Z,7.20
2022-10-26T02:34:48.929Z,6.90
2022-10-26T02:37:36.426Z,6.53
2022-10-26T02:40:26.063Z,6.67
2022-10-26T02:43:15.066Z,7.50
2022-10-26T02:46:05.777Z,7.00
2022-10-26T02:48:50.516Z,7.10
2022-10-26T02:51:54.014Z,7.20
2022-10-26T02:54:51.156Z,7.60
2022-10-26T02:57:38.923Z,7.70
2022-10-26T03:00:24.449Z,8.13
2022-10-26T03:03:09.821Z,7.50
2022-10-26T03:05:54.897Z,7.53
2022-10-26T03:08:39.863Z,8.40
2022-10-26T03:11:24.794Z,7.57
2022-10-26T03:14:10.220Z,8.27
2022-10-26T03:16:55.828Z,7.87
2022-10-26T03:19:40.805Z,8.13
2022-10-26T03:22:25.968Z,8.73
2022-10-26T03:25:10.856Z,8.63
2022-10-26T03:28:00.772Z,7.93
2022-10-26T03:30:45.682Z,8.50
2022-10-26T03:33:30.545Z,8.53
2022-10-26T03:36:15.967Z,8.80
2022-10-26T03:39:01.084Z,8.67
2022-10-26T03:41:46.133Z,9.77
2022-10-26T03:44:31.562Z,9.73
2022-10-26T03:47:17.541Z,9.10
2022-10-26T03:50:02.938Z,9.80
2022-10-26T03:52:49.540Z,9.17
2022-10-26T03:55:34.658Z,10.40
2022-10-26T03:58:20.569Z,10.63
2022-10-26T04:01:05.487Z,10.33
2022-10-26T04:03:50.928Z,9.73
2022-10-26T04:06:36.684Z,10.73
2022-10-26T04:09:23.294Z,11.13
2022-10-26T04:12:08.703Z,11.50
2022-10-26T04:14:53.830Z,11.40
2022-10-26T04:17:39.097Z,11.30
2022-10-26T04:20:25.456Z,11.53
2022-10-26T04:23:16.500Z,11.63
2022-10-26T04:26:01.508Z,12.33
2022-10-26T04:28:46.609Z,12.30
2022-10-26T04:31:32.195Z,12.70
2022-10-26T04:34:17.395Z,13.10
2022-10-26T04:37:02.289Z,12.40
2022-10-26T04:39:47.157Z,13.07
2022-10-26T04:42:32.035Z,13.20
2022-10-26T04:45:17.020Z,12.63
2022-10-26T04:48:11.372Z,12.37
2022-10-26T04:51:00.472Z,11.50
2022-10-26T04:53:45.271Z,11.97
2022-10-26T04:56:30.406Z,12.33
2022-10-26T04:59:15.742Z,12.83
2022-10-26T05:02:00.970Z,11.67
2022-10-26T05:04:46.435Z,12.00
2022-10-26T05:07:31.273Z,12.17
2022-10-26T05:10:16.400Z,12.90
2022-10-26T05:13:01.713Z,12.33
2022-10-26T05:15:46.798Z,12.77
2022-10-26T05:18:31.647Z,13.10
2022-10-26T05:21:17.479Z,12.87
2022-10-26T05:24:02.431Z,13.30
2022-10-26T05:26:47.645Z,13.20
2022-10-26T05:29:32.495Z,12.77
2022-10-26T05:32:17.216Z,12.33
2022-10-26T05:35:02.702Z,11.43
2022-10-26T05:37:47.675Z,12.53
2022-10-26T05:40:32.624Z,12.10
2022-10-26T05:43:18.749Z,11.83
2022-10-26T05:46:03.957Z,11.30
2022-10-26T05:48:49.134Z,11.90
2022-10-26T05:51:34.229Z,13.60
2022-10-26T05:54:19.440Z,13.57
2022-10-26T05:57:05.179Z,14.80
2022-10-26T05:59:50.211Z,15.27
2022-10-26T06:03:06.535Z,13.33
2022-10-26T06:06:00.703Z,12.83
2022-10-26T06:08:48.093Z,14.40
2022-10-26T06:11:33.159Z,14.23
2022-10-26T06:14:18.614Z,13.53
2022-10-26T06:17:21.845Z,12.17
2022-10-26T06:20:31.185Z,11.47
2022-10-26T06:23:43.994Z,11.03
2022-10-26T06:26:32.767Z,11.93
2022-10-26T06:29:55.464Z,13.03
2022-10-26T06:33:01.087Z,13.37
2022-10-26T06:36:18.214Z,12.83
2022-10-26T06:39:07.508Z,12.00
2022-10-26T06:41:52.496Z,12.07
2022-10-26T06:44:37.894Z,12.17
2022-10-26T06:47:48.004Z,12.60
2022-10-26T06:50:41.697Z,11.98
2022-10-26T06:53:43.844Z,12.38
2022-10-26T06:56:29.486Z,11.10
2022-10-26T06:59:37.578Z,10.45
2022-10-26T07:02:23.200Z,10.83
2022-10-26T07:05:08.421Z,10.60
2022-10-26T07:07:53.724Z,10.43
2022-10-26T07:10:39.313Z,10.40
2022-10-26T07:13:24.508Z,9.73
2022-10-26T07:16:09.947Z,9.68
2022-10-26T07:18:55.554Z,9.77
2022-10-26T07:21:40.464Z,9.77
2022-10-26T07:24:26.053Z,10.30
2022-10-26T07:27:11.351Z,10.13
2022-10-26T07:29:56.214Z,10.07
2022-10-26T07:32:41.460Z,9.85
2022-10-26T07:35:26.477Z,9.85
2022-10-26T07:38:12.686Z,10.18
2022-10-26T07:40:57.913Z,10.73
2022-10-26T07:43:42.790Z,10.43
2022-10-26T07:46:28.649Z,9.55
2022-10-26T07:49:16.269Z,9.57
2022-10-26T07:52:04.443Z,9.48
2022-10-26T07:54:49.642Z,8.70
2022-10-26T07:57:34.555Z,8.90
2022-10-26T08:00:19.860Z,8.77
2022-10-26T08:03:04.861Z,9.30
2022-10-26T08:05:50.071Z,8.90
2022-10-26T08:08:35.338Z,8.40
2022-10-26T08:11:20.392Z,7.63
2022-10-26T08:14:05.775Z,8.02
2022-10-26T08:16:50.788Z,7.88
2022-10-26T08:19:36.166Z,7.25
2022-10-26T08:22:21.408Z,6.47
2022-10-26T08:25:06.973Z,6.90
2022-10-26T08:27:52.522Z,6.35
2022-10-26T08:30:37.603Z,6.57
2022-10-26T08:33:23.340Z,6.32
2022-10-26T08:36:08.232Z,5.97
2022-10-26T08:38:53.803Z,6.05
2022-10-26T08:41:46.554Z,6.32
2022-10-26T08:44:51.249Z,5.80
2022-10-26T08:47:44.499Z,6.28
2022-10-26T08:50:42.063Z,5.57
2022-10-26T08:53:27.889Z,6.32
2022-10-26T08:56:21.879Z,5.50
2022-10-26T08:59:24.989Z,5.75
2022-10-26T09:02:14.193Z,5.50
2022-10-26T09:05:00.429Z,5.22
2022-10-26T09:07:45.666Z,5.72
2022-10-26T09:10:33.557Z,5.18
2022-10-26T09:13:42.288Z,5.80
2022-10-26T09:16:42.432Z,5.30
2022-10-26T09:19:45.552Z,4.70
2022-10-26T09:22:38.743Z,5.03
2022-10-26T09:25:29.517Z,4.40
2022-10-26T09:28:18.717Z,4.82
2022-10-26T09:31:04.851Z,4.40
2022-10-26T09:33:51.921Z,4.13
2022-10-26T09:36:36.982Z,3.65
2022-10-26T09:39:33.843Z,3.28
2022-10-26T09:42:43.224Z,3.50
2022-10-26T09:45:28.034Z,3.30
2022-10-26T09:48:22.673Z,3.67
2022-10-26T09:51:07.840Z,3.40
2022-10-26T09:53:56.140Z,3.03
2022-10-26T09:56:43.685Z,3.40
2022-10-26T09:59:33.684Z,3.00
2022-10-26T10:02:38.654Z,2.85
2022-10-26T10:05:45.798Z,3.03
2022-10-26T10:08:30.254Z,2.70
2022-10-26T10:11:15.594Z,3.15
2022-10-26T10:14:07.615Z,2.70
2022-10-26T10:16:57.719Z,2.90
2022-10-26T10:19:42.440Z,2.97
2022-10-26T10:22:28.332Z,2.42
2022-10-26T10:25:26.114Z,2.50
2022-10-26T10:31:22.606Z,3.28
2022-10-26T10:34:22.127Z,3.58
2022-10-26T10:37:15.117Z,2.60
2022-10-26T10:40:08.021Z,2.90
2022-10-26T10:43:03.038Z,2.58
2022-10-26T10:45:53.671Z,2.33
2022-10-26T10:48:47.367Z,2.70
2022-10-26T10:51:39.542Z,2.30
2022-10-26T10:54:39.113Z,2.85
2022-10-26T10:57:47.599Z,2.67
2022-10-26T11:00:37.023Z,2.20
2022-10-26T11:03:50.374Z,2.30
2022-10-26T11:06:40.981Z,2.33
2022-10-26T11:09:29.708Z,2.17
2022-10-26T11:12:37.623Z,2.47
2022-10-26T11:15:26.199Z,3.13
2022-10-26T11:18:33.912Z,2.70
2022-10-26T11:21:31.121Z,2.47
2022-10-26T11:24:29.838Z,2.50
2022-10-26T11:27:17.999Z,2.58
2022-10-26T11:30:19.601Z,2.50
2022-10-26T11:33:13.781Z,2.72
2022-10-26T11:36:05.009Z,2.78
2022-10-26T11:38:59.298Z,2.47
2022-10-26T11:41:56.245Z,2.60
2022-10-26T11:44:57.894Z,2.90
2022-10-26T11:47:52.681Z,2.50
2022-10-26T11:50:54.237Z,2.70
2022-10-26T11:53:43.965Z,2.30
2022-10-26T11:56:39.319Z,2.47
2022-10-26T11:59:33.296Z,2.35
2022-10-26T12:02:24.506Z,2.55
2022-10-26T12:05:15.454Z,2.45
2022-10-26T12:08:05.482Z,2.42
2022-10-26T12:11:05.278Z,2.40
2022-10-26T12:13:56.695Z,2.58
2022-10-26T12:17:11.525Z,2.13
2022-10-26T12:20:18.027Z,2.17
2022-10-26T12:23:05.106Z,2.67
2022-10-26T12:25:50.225Z,2.50
2022-10-26T12:28:35.394Z,2.20
2022-10-26T12:31:32.938Z,2.22
2022-10-26T12:34:30.675Z,2.33
2022-10-26T12:37:32.030Z,2.20
2022-10-26T12:40:43.382Z,2.58
2022-10-26T12:43:31.463Z,2.75
2022-10-26T12:46:16.888Z,2.45
2022-10-26T12:49:01.933Z,2.35
2022-10-26T12:51:46.716Z,2.28
2022-10-26T12:54:40.106Z,2.17
2022-10-26T12:57:46.248Z,2.10
2022-10-26T13:00:34.443Z,2.40
2022-10-26T13:03:34.433Z,2.30
2022-10-26T13:06:31.814Z,2.45
2022-10-26T13:09:37.408Z,2.78
2022-10-26T13:12:22.626Z,2.50
2022-10-26T13:15:24.480Z,2.40
2022-10-26T13:18:16.586Z,2.78
2022-10-26T13:21:09.437Z,2.55
2022-10-26T13:23:54.157Z,2.60
2022-10-26T13:27:07.140Z,2.85
2022-10-26T13:30:04.777Z,2.58
2022-10-26T13:32:55.792Z,2.67
2022-10-26T13:35:42.929Z,2.72
2022-10-26T13:38:33.765Z,2.70
2022-10-26T13:41:30.507Z,3.03
2022-10-26T13:44:39.065Z,2.42
2022-10-26T13:47:26.958Z,2.83
2022-10-26T13:50:17.050Z,3.00
2022-10-26T13:53:17.469Z,2.55
2022-10-26T13:56:17.375Z,2.80
2022-10-26T13:59:11.127Z,2.60
2022-10-26T14:02:26.630Z,2.90
2022-10-26T14:05:14.552Z,2.95
2022-10-26T14:07:59.983Z,2.80
2022-10-26T14:10:47.942Z,2.88
2022-10-26T14:13:34.195Z,3.13
2022-10-26T14:16:20.167Z,3.00
2022-10-26T14:19:05.488Z,2.40
2022-10-26T14:21:51.022Z,3.03
2022-10-26T14:24:47.009Z,3.00
2022-10-26T14:27:39.073Z,3.38
2022-10-26T14:30:31.812Z,3.20
2022-10-26T14:33:18.757Z,2.55
2022-10-26T14:36:04.671Z,3.08
2022-10-26T14:38:56.734Z,2.83
2022-10-26T14:41:42.673Z,2.80
2022-10-26T14:44:27.738Z,2.50
2022-10-26T14:47:32.559Z,2.70
2022-10-26T14:50:22.158Z,2.75
2022-10-26T14:53:16.716Z,2.67
2022-10-26T14:56:04.113Z,2.50
2022-10-26T14:58:49.815Z,2.60
2022-10-26T15:01:49.412Z,2.50
2022-10-26T15:04:36.089Z,2.80
2022-10-26T15:07:21.051Z,2.63
2022-10-26T15:10:06.096Z,2.85
2022-10-26T15:12:51.266Z,2.60
2022-10-26T15:15:39.584Z,2.50
2022-10-26T15:18:35.038Z,2.70
2022-10-26T15:21:27.028Z,2.90
2022-10-26T15:24:39.251Z,2.70
2022-10-26T15:27:25.134Z,2.80
2022-10-26T15:30:21.487Z,2.53
2022-10-26T15:33:19.877Z,2.80
2022-10-26T15:36:08.222Z,2.67
2022-10-26T15:38:53.665Z,2.80
2022-10-26T15:41:45.981Z,2.60
2022-10-26T15:44:30.790Z,2.70
2022-10-26T15:47:18.531Z,2.63
2022-10-26T15:50:04.191Z,2.47
2022-10-26T15:52:49.797Z,2.70
2022-10-26T15:55:35.889Z,2.63
2022-10-26T15:58:21.609Z,2.80
2022-10-26T16:01:06.662Z,2.63
2022-10-26T16:03:52.992Z,2.70
2022-10-26T16:06:39.897Z,2.70
2022-10-26T16:09:24.615Z,2.78
2022-10-26T16:12:13.569Z,3.58
2022-10-26T16:15:05.458Z,2.53
2022-10-26T16:17:51.947Z,3.28
2022-10-26T16:20:37.402Z,3.38
2022-10-26T16:23:22.996Z,3.40
2022-10-26T16:26:08.839Z,3.20
2022-10-26T16:28:53.690Z,2.97
2022-10-26T16:31:38.428Z,3.72
2022-10-26T16:34:23.240Z,3.38
2022-10-26T16:37:08.083Z,3.20
2022-10-26T16:39:52.924Z,3.40
2022-10-26T16:42:37.997Z,4.25
2022-10-26T16:45:23.026Z,4.27
2022-10-26T16:48:09.222Z,4.60
2022-10-26T16:50:54.115Z,3.65
2022-10-26T16:53:40.436Z,4.50
2022-10-26T16:56:29.731Z,4.30
2022-10-26T16:59:14.747Z,4.95
2022-10-26T17:01:59.818Z,4.57
2022-10-26T17:04:44.855Z,4.00
2022-10-26T17:07:29.611Z,4.22
2022-10-26T17:10:14.603Z,4.28
2022-10-26T17:12:59.443Z,4.25
2022-10-26T17:15:45.416Z,3.97
2022-10-26T17:18:30.616Z,4.88
2022-10-26T17:21:17.736Z,5.03
2022-10-26T17:24:03.309Z,4.97
2022-10-26T17:26:48.647Z,4.55
2022-10-26T17:29:33.357Z,4.40
2022-10-26T17:32:18.147Z,5.00
2022-10-26T17:35:03.972Z,5.05
2022-10-26T17:37:49.565Z,8.50
2022-10-26T17:40:34.588Z,20.17
2022-10-26T17:43:19.573Z,5.25
2022-10-26T17:46:07.499Z,5.22
2022-10-26T17:48:57.273Z,5.20
2022-10-26T17:51:42.416Z,5.80
2022-10-26T17:54:27.224Z,5.93
2022-10-26T17:57:11.988Z,6.50
2022-10-26T17:59:56.953Z,7.63
2022-10-26T18:02:41.979Z,5.50
2022-10-26T18:05:27.368Z,5.13
2022-10-26T18:08:12.419Z,5.90
2022-10-26T18:10:57.334Z,6.10
2022-10-26T18:13:42.660Z,5.68
2022-10-26T18:16:28.035Z,5.60
2022-10-26T18:19:13.266Z,5.60
2022-10-26T18:21:58.481Z,6.70
2022-10-26T18:24:43.325Z,6.75
2022-10-26T18:27:28.540Z,7.93
2022-10-26T18:30:13.842Z,6.47
2022-10-26T18:32:58.890Z,7.50
2022-10-26T18:35:43.851Z,16.70
2022-10-26T18:38:29.444Z,10.32
2022-10-26T18:41:16.454Z,8.70
2022-10-26T18:44:01.430Z,9.13
2022-10-26T18:46:46.669Z,7.93
2022-10-26T18:49:31.465Z,7.07
2022-10-26T18:52:16.871Z,5.72
2022-10-26T18:55:01.765Z,6.63
2022-10-26T18:57:46.718Z,7.05
2022-10-26T19:00:31.686Z,7.60
2022-10-26T19:03:17.140Z,7.78
2022-10-26T19:06:12.729Z,7.97
2022-10-26T19:08:58.113Z,8.23
2022-10-26T19:11:43.159Z,8.50
2022-10-26T19:14:28.364Z,9.50
2022-10-26T19:17:13.230Z,8.10
2022-10-26T19:19:58.157Z,7.65
2022-10-26T19:22:43.453Z,7.18
2022-10-26T19:25:28.454Z,7.03
2022-10-26T19:28:13.339Z,7.50
2022-10-26T19:30:58.646Z,9.88
2022-10-26T19:33:43.546Z,8.82
2022-10-26T19:36:29.588Z,9.25
2022-10-26T19:39:16.434Z,8.80
2022-10-26T19:42:01.586Z,11.32
2022-10-26T19:44:46.362Z,11.82
2022-10-26T19:47:31.828Z,8.65
2022-10-26T19:50:17.154Z,9.00
2022-10-26T19:53:02.184Z,10.05
2022-10-26T19:55:48.329Z,8.45
2022-10-26T19:58:33.426Z,9.27
2022-10-26T20:01:18.597Z,9.30
2022-10-26T20:04:04.255Z,8.55
2022-10-26T20:06:49.380Z,10.50
2022-10-26T20:09:34.509Z,9.98
2022-10-26T20:12:19.978Z,10.35
2022-10-26T20:15:05.111Z,10.18
2022-10-26T20:17:50.270Z,10.38
2022-10-26T20:20:35.549Z,8.82
2022-10-26T20:23:20.418Z,9.90
2022-10-26T20:28:56.285Z,9.85
2022-10-26T20:31:41.625Z,8.90
2022-10-26T20:37:14.619Z,10.20
2022-10-26T20:39:59.919Z,9.98
2022-10-26T20:42:45.463Z,9.32
2022-10-26T20:45:31.934Z,9.55
2022-10-26T20:48:17.567Z,9.73
2022-10-26T20:51:06.012Z,8.50
2022-10-26T20:54:01.467Z,9.77
2022-10-26T20:56:48.651Z,9.20
2022-10-26T20:59:56.413Z,11.18
2022-10-26T21:02:41.444Z,9.65
2022-10-26T21:05:26.398Z,9.68
2022-10-26T21:08:11.591Z,10.80
2022-10-26T21:10:56.863Z,9.70
2022-10-26T21:13:43.712Z,8.32
2022-10-26T21:16:28.613Z,6.20
2022-10-26T21:19:13.912Z,9.15
2022-10-26T21:21:58.683Z,8.65
2022-10-26T21:24:43.628Z,8.80
2022-10-26T21:27:28.446Z,9.32
2022-10-26T21:30:13.751Z,9.70
2022-10-26T21:32:58.701Z,9.80
2022-10-26T21:35:52.203Z,8.90
2022-10-26T21:38:37.699Z,9.50
2022-10-26T21:41:22.503Z,8.57
2022-10-26T21:44:14.989Z,8.98
2022-10-26T21:47:11.980Z,9.60
2022-10-26T21:49:56.981Z,8.43
2022-10-26T21:52:41.919Z,9.50
2022-10-26T21:55:26.750Z,9.65
2022-10-26T21:58:11.923Z,9.43
2022-10-26T22:01:12.003Z,9.30
2022-10-26T22:03:57.004Z,10.35
2022-10-26T22:06:42.064Z,9.60
2022-10-26T22:09:27.161Z,10.88
2022-10-26T22:12:12.102Z,9.80
2022-10-26T22:14:57.088Z,10.38
2022-10-26T22:17:42.785Z,10.38
2022-10-26T22:20:27.672Z,10.68
2022-10-26T22:23:12.679Z,10.68
2022-10-26T22:26:01.646Z,10.65
2022-10-26T22:28:48.233Z,10.43
2022-10-26T22:31:37.079Z,10.93
2022-10-26T22:34:21.909Z,10.70
2022-10-26T22:37:06.802Z,12.02
2022-10-26T22:39:51.818Z,11.27
2022-10-26T22:42:36.545Z,10.82
2022-10-26T22:45:21.530Z,11.18
2022-10-26T22:50:51.378Z,11.40
2022-10-26T22:53:36.757Z,11.05
2022-10-26T22:56:23.522Z,12.25
2022-10-26T22:59:08.541Z,13.82
2022-10-26T23:01:53.408Z,12.98
2022-10-26T23:04:38.670Z,12.85
2022-10-26T23:07:23.858Z,12.73
2022-10-26T23:10:09.404Z,12.05
2022-10-26T23:12:54.836Z,11.52
2022-10-26T23:15:40.173Z,12.45
2022-10-26T23:18:25.547Z,12.55
2022-10-26T23:21:12.363Z,11.95
2022-10-26T23:23:57.611Z,13.63
2022-10-26T23:26:42.912Z,12.63
2022-10-26T23:29:27.810Z,14.30
2022-10-26T23:32:12.720Z,14.00
2022-10-26T23:34:57.518Z,13.68
2022-10-26T23:37:42.729Z,13.50
2022-10-26T23:40:27.904Z,13.10
2022-10-26T23:43:12.858Z,13.50
2022-10-26T23:45:57.689Z,13.18
2022-10-26T23:48:43.047Z,11.80
2022-10-26T23:51:27.951Z,11.55
2022-10-26T23:54:12.910Z,11.82
2022-10-26T23:56:58.157Z,11.32
2022-10-26T23:59:42.911Z,10.30
